Time;durP1;ratioP1;P1;durP2;ratioP2;P2;SDS_P1;SDS_P2;PMS_P1;PMS_P2;Temp;Humidity;BMP_temperature;BMP_pressure;BME280_temperature;BME280_humidity;BME280_pressure;Samples;Min_cycle;Max_cycle;Signal;HPM_P1;HPM_P2
2022/04/15 00:00:09;;;;;;;10.75;8.50;;;;;;;12.77;70.57;100723.50;5016402;28;20277;-65
2022/04/15 00:02:53;;;;;;;;;;;;;;;12.76;70.58;100732.16;5016338;28;20057;-65
2022/04/15 00:05:40;;;;;;;14.70;9.23;;;;;;;12.75;70.86;100727.81;5015826;28;19972;-65
2022/04/15 00:08:23;;;;;;;12.27;9.43;;;;;;;12.77;70.62;100725.22;5014880;28;20477;-64
2022/04/15 00:11:08;;;;;;;13.98;10.48;;;;;;;12.76;70.60;100731.31;5015428;28;20420;-65
2022/04/15 00:13:52;;;;;;;;;;;;;;;12.76;70.80;100729.56;5015769;28;20096;-65
2022/04/15 00:16:36;;;;;;;15.73;10.13;;;;;;;12.74;70.76;100723.44;5015262;28;20020;-65
2022/04/15 00:19:20;;;;;;;13.60;9.77;;;;;;;12.74;70.85;100720.84;5015993;28;20529;-66
2022/04/15 00:22:03;;;;;;;14.18;10.48;;;;;;;12.75;70.72;100720.00;5000786;28;20417;-65
2022/04/15 00:24:47;;;;;;;14.85;10.43;;;;;;;12.74;70.90;100723.44;5016253;28;20382;-66
2022/04/15 00:27:31;;;;;;;12.32;9.00;;;;;;;12.74;70.61;100727.78;5015160;28;20065;-65
2022/04/15 00:30:15;;;;;;;11.27;10.10;;;;;;;12.74;70.49;100720.84;5000922;28;20053;-65
2022/04/15 00:32:59;;;;;;;13.98;10.77;;;;;;;12.74;70.67;100726.06;5015041;28;20040;-65
2022/04/15 00:35:43;;;;;;;12.10;9.35;;;;;;;12.74;70.70;100730.41;5014964;28;20100;-65
2022/04/15 00:38:27;;;;;;;13.25;10.13;;;;;;;12.74;70.76;100733.00;5015733;28;20742;-65
2022/04/15 00:41:15;;;;;;;11.90;9.27;;;;;;;12.73;70.52;100732.09;5015278;28;20049;-65
2022/04/15 00:43:59;;;;;;;20.52;11.18;;;;;;;12.73;70.61;100729.50;5014554;28;20436;-65
2022/04/15 00:46:43;;;;;;;12.10;9.88;;;;;;;12.73;70.85;100733.84;5015461;28;20045;-65
2022/04/15 00:49:27;;;;;;;16.25;10.90;;;;;;;12.73;70.79;100739.03;5015133;28;20084;-65
2022/04/15 00:52:13;;;;;;;12.98;10.30;;;;;;;12.71;70.64;100727.72;5000307;28;20096;-65
2022/04/15 00:54:58;;;;;;;11.85;9.48;;;;;;;12.70;70.79;100737.25;4998905;28;20049;-65
2022/04/15 00:57:45;;;;;;;15.75;10.52;;;;;;;12.70;70.74;100731.19;5000317;28;20049;-65
2022/04/15 01:00:31;;;;;;;11.73;9.57;;;;;;;12.70;70.63;100731.19;5000534;28;20060;-66
2022/04/15 01:03:18;;;;;;;16.40;9.85;;;;;;;12.68;70.82;100738.97;4999644;28;20562;-66
2022/04/15 01:06:04;;;;;;;13.52;10.35;;;;;;;12.67;70.63;100737.22;5014765;28;20048;-65
2022/04/15 01:08:52;;;;;;;12.35;9.48;;;;;;;12.66;70.83;100729.38;5013709;28;20421;-65
2022/04/15 01:11:36;;;;;;;10.52;9.43;;;;;;;12.65;70.69;100738.91;4999463;28;20048;-65
2022/04/15 01:14:24;;;;;;;;;;;;;;;12.63;70.72;100741.44;5013940;28;20460;-65
2022/04/15 01:17:08;;;;;;;15.57;9.00;;;;;;;12.61;70.73;100731.88;5014116;28;19924;-65
2022/04/15 01:19:52;;;;;;;13.65;9.73;;;;;;;12.61;70.43;100737.94;5000090;28;20135;-65
2022/04/15 01:22:44;;;;;;;15.38;10.50;;;;;;;12.61;70.65;100742.28;5014119;28;20045;-65
2022/04/15 01:25:28;;;;;;;14.25;10.38;;;;;;;12.61;70.68;100742.28;4999739;28;20104;-65
2022/04/15 01:28:16;;;;;;;15.32;10.23;;;;;;;12.61;70.76;100748.34;4999943;28;20156;-65
2022/04/15 01:31:00;;;;;;;12.98;9.90;;;;;;;12.61;70.75;100742.28;4999643;28;20104;-65
2022/04/15 01:33:44;;;;;;;13.07;10.40;;;;;;;12.60;70.52;100743.13;5014171;28;20404;-65
2022/04/15 01:36:28;;;;;;;17.33;11.00;;;;;;;12.60;70.62;100745.72;5014345;28;20060;-65
2022/04/15 01:39:12;;;;;;;15.95;10.63;;;;;;;12.59;70.42;100743.97;4999747;28;20409;-65
2022/04/15 01:41:56;;;;;;;15.85;10.60;;;;;;;12.57;70.40;100746.56;5013454;28;20084;-65
2022/04/15 01:44:41;;;;;;;16.23;10.45;;;;;;;12.57;70.30;100751.75;5014366;28;20393;-66
2022/04/15 01:47:25;;;;;;;12.60;10.13;;;;;;;12.57;70.78;100743.97;5012959;28;20425;-65
2022/04/15 01:50:10;;;;;;;17.17;10.80;;;;;;;12.56;70.51;100754.31;4999562;28;20096;-65
2022/04/15 01:52:56;;;;;;;13.40;10.07;;;;;;;12.55;70.64;100756.06;5012958;28;20108;-65
2022/04/15 01:55:40;;;;;;;11.27;8.98;;;;;;;12.55;70.41;100761.25;4999106;28;20045;-65
2022/04/15 01:58:24;;;;;;;16.38;11.60;;;;;;;12.54;70.57;100756.00;5012985;28;20579;-65
2022/04/15 02:01:08;;;;;;;12.68;10.90;;;;;;;12.54;70.36;100761.19;5014103;28;20065;-64
2022/04/15 02:03:52;;;;;;;12.00;9.95;;;;;;;12.54;70.36;100762.09;5013247;28;20049;-65
2022/04/15 02:06:36;;;;;;;14.90;11.55;;;;;;;12.53;70.26;100760.34;5013729;28;20104;-65
2022/04/15 02:09:20;;;;;;;16.55;11.38;;;;;;;12.54;70.52;100753.41;5014201;28;20052;-65
2022/04/15 02:12:04;;;;;;;15.52;10.35;;;;;;;12.52;70.67;100761.19;4998859;28;20052;-65
2022/04/15 02:14:48;;;;;;;13.38;10.35;;;;;;;12.52;70.21;100757.72;5013839;28;20112;-65
2022/04/15 02:17:33;;;;;;;13.07;10.73;;;;;;;12.51;70.76;100761.16;5013941;28;20046;-65
2022/04/15 02:20:17;;;;;;;14.60;10.98;;;;;;;12.50;70.61;100757.66;5013040;28;20041;-65
2022/04/15 02:23:01;;;;;;;15.40;10.38;;;;;;;12.49;70.53;100764.59;5013505;28;20053;-66
2022/04/15 02:25:45;;;;;;;13.05;10.63;;;;;;;12.48;70.36;100765.47;5012808;28;20107;-65
2022/04/15 02:28:29;;;;;;;13.57;10.38;;;;;;;12.47;70.18;100765.41;5013931;28;20049;-65
2022/04/15 02:31:13;;;;;;;15.05;11.13;;;;;;;12.48;70.32;100768.06;5013472;28;20141;-66
2022/04/15 02:33:57;;;;;;;13.73;10.15;;;;;;;12.47;70.55;100766.28;5012816;28;20570;-65
2022/04/15 02:36:41;;;;;;;12.95;11.02;;;;;;;12.47;70.40;100765.41;4998620;28;20596;-65
2022/04/15 02:39:25;;;;;;;12.82;10.88;;;;;;;12.47;70.35;100771.50;5013400;28;20108;-65
2022/04/15 02:42:09;;;;;;;14.55;11.80;;;;;;;12.46;70.22;100761.06;5013754;28;20512;-66
2022/04/15 02:44:53;;;;;;;;;;;;;;;12.45;70.43;100761.94;5013836;28;20064;-65
2022/04/15 02:47:39;;;;;;;18.17;12.82;;;;;;;12.43;70.41;100767.06;5012905;28;19920;-64
2022/04/15 02:50:23;;;;;;;15.25;12.32;;;;;;;12.43;70.08;100769.69;4998913;28;20053;-65
2022/04/15 02:53:07;;;;;;;17.33;13.10;;;;;;;12.43;70.34;100769.69;5013658;28;20120;-65
2022/04/15 02:55:52;;;;;;;17.17;13.60;;;;;;;12.41;70.64;100765.31;5013498;28;20053;-65
2022/04/15 02:58:36;;;;;;;13.35;11.40;;;;;;;12.41;70.36;100765.31;5013413;28;20053;-65
2022/04/15 03:01:20;;;;;;;16.48;11.80;;;;;;;12.42;70.51;100767.06;5013083;28;20504;-65
2022/04/15 03:04:04;;;;;;;15.10;12.15;;;;;;;12.41;70.35;100763.56;4998752;28;20064;-65
2022/04/15 03:06:48;;;;;;;15.32;12.27;;;;;;;12.39;70.51;100762.66;4998477;28;20049;-65
2022/04/15 03:09:31;;;;;;;14.55;12.65;;;;;;;12.38;70.28;100763.50;5013447;28;20068;-65
2022/04/15 03:12:15;;;;;;;15.77;13.10;;;;;;;12.39;70.06;100761.78;5013503;28;20595;-65
2022/04/15 03:14:59;;;;;;;14.35;11.90;;;;;;;12.38;70.23;100768.69;4998388;28;20092;-65
2022/04/15 03:17:43;;;;;;;18.08;13.57;;;;;;;12.38;70.26;100760.91;5013761;28;20045;-65
2022/04/15 03:20:28;;;;;;;20.17;13.18;;;;;;;12.36;70.43;100760.03;5016046;28;20124;-65
2022/04/15 03:23:12;;;;;;;14.15;11.57;;;;;;;12.37;70.25;100755.69;5002361;28;20053;-65
2022/04/15 03:25:56;;;;;;;18.15;13.18;;;;;;;12.37;70.00;100771.28;5016514;28;20184;-65
2022/04/15 03:28:40;;;;;;;17.85;12.65;;;;;;;12.36;70.12;100762.63;5016512;28;20060;-65
2022/04/15 03:31:24;;;;;;;17.42;14.18;;;;;;;12.35;70.31;100763.47;5016455;28;20045;-65
2022/04/15 03:34:08;;;;;;;19.27;13.25;;;;;;;12.36;70.27;100772.13;5016408;28;20092;-65
2022/04/15 03:36:52;;;;;;;19.60;13.30;;;;;;;12.35;70.33;100779.06;5016233;28;20044;-66
2022/04/15 03:39:35;;;;;;;18.17;13.13;;;;;;;12.34;70.48;100765.16;5016834;28;20405;-65
2022/04/15 03:42:19;;;;;;;19.83;14.48;;;;;;;12.33;70.42;100770.34;5015975;28;20547;-66
2022/04/15 03:45:03;;;;;;;19.20;14.18;;;;;;;12.33;70.40;100779.00;5015961;28;20056;-65
2022/04/15 03:47:57;;;;;;;;;;;;;;;12.31;70.16;100775.50;5016975;28;20508;-65
2022/04/15 03:50:41;;;;;;;17.63;13.27;;;;;;;12.31;70.24;100777.22;5015133;28;19920;-65
2022/04/15 03:53:25;;;;;;;16.40;13.93;;;;;;;12.30;70.07;100784.13;5016556;28;20125;-65
2022/04/15 03:56:09;;;;;;;20.48;15.05;;;;;;;12.31;70.08;100779.84;5015441;28;20547;-65
2022/04/15 03:58:53;;;;;;;19.70;14.70;;;;;;;12.29;69.92;100777.22;5001203;28;20056;-65
2022/04/15 04:01:37;;;;;;;21.38;15.82;;;;;;;12.28;70.01;100784.97;5016097;28;20620;-65
2022/04/15 04:04:21;;;;;;;17.40;14.32;;;;;;;12.27;70.26;100783.19;5015039;28;20045;-65
2022/04/15 04:07:05;;;;;;;22.17;17.02;;;;;;;12.26;70.10;100790.13;5015893;28;20131;-65
2022/04/15 04:09:49;;;;;;;17.17;14.90;;;;;;;12.26;70.33;100789.25;5015252;28;20582;-65
2022/04/15 04:12:34;;;;;;;22.70;16.45;;;;;;;12.25;70.25;100788.38;5015791;28;20096;-65
2022/04/15 04:15:18;;;;;;;20.25;15.40;;;;;;;12.22;70.09;100787.44;5014974;28;20045;-65
2022/04/15 04:18:02;;;;;;;;;;;;;;;12.21;69.93;100793.50;5016215;28;20104;-64
2022/04/15 04:20:47;;;;;;;18.95;15.73;;;;;;;12.18;70.24;100791.69;5016061;28;19920;-65
2022/04/15 04:23:59;;;;;;;20.73;15.88;;;;;;;12.18;70.50;100789.09;5152620;27;20228;-65
2022/04/15 04:26:43;;;;;;;19.70;15.80;;;;;;;12.16;70.40;100791.66;5152610;27;20066;-65
2022/04/15 04:29:27;;;;;;;18.27;14.73;;;;;;;12.16;69.96;100789.06;5152610;27;20058;-65
2022/04/15 04:32:11;;;;;;;19.42;14.60;;;;;;;12.15;69.91;100794.22;5152074;27;20081;-65
2022/04/15 04:34:55;;;;;;;19.63;15.52;;;;;;;12.14;69.99;100797.69;5152292;27;20041;-65
2022/04/15 04:37:38;;;;;;;22.00;15.25;;;;;;;12.13;70.11;100799.38;5152074;27;20092;-64
2022/04/15 04:40:22;;;;;;;18.27;14.27;;;;;;;12.13;70.26;100799.38;5152247;27;20042;-65
2022/04/15 04:43:07;;;;;;;20.45;14.48;;;;;;;12.13;70.16;100803.72;5152054;27;20069;-65
2022/04/15 04:45:51;;;;;;;21.23;15.80;;;;;;;12.11;70.00;100808.88;5152353;27;20042;-65
2022/04/15 04:48:35;;;;;;;19.52;15.48;;;;;;;12.12;70.25;100813.22;5152031;27;20087;-65
2022/04/15 04:51:19;;;;;;;18.85;15.52;;;;;;;12.11;69.64;100808.00;5136248;27;20042;-65
2022/04/15 04:54:03;;;;;;;22.00;15.77;;;;;;;12.10;69.87;100809.72;5136435;27;20079;-65
2022/04/15 04:56:48;;;;;;;;;;;;;;;12.08;69.82;100813.13;5152079;27;20138;-65
2022/04/15 04:59:33;;;;;;;21.90;15.57;;;;;;;12.08;70.03;100813.13;5151720;27;19918;-65
2022/04/15 05:02:17;;;;;;;20.35;15.05;;;;;;;12.07;69.79;100822.63;5136480;27;20054;-65
2022/04/15 05:05:01;;;;;;;21.30;15.82;;;;;;;12.07;70.23;100825.22;5136232;27;20053;-65
2022/04/15 05:07:45;;;;;;;21.30;16.33;;;;;;;12.08;70.22;100828.72;5136076;27;20050;-65
2022/04/15 05:10:29;;;;;;;23.63;15.73;;;;;;;12.07;70.08;100826.97;5151552;27;20050;-65
2022/04/15 05:13:53;;;;;;;19.88;15.38;;;;;;;12.06;69.71;100836.50;5152507;27;20367;-65
2022/04/15 05:16:37;;;;;;;19.23;15.40;;;;;;;12.07;70.16;100834.75;5131932;28;20540;-65
2022/04/15 05:19:21;;;;;;;19.55;16.02;;;;;;;12.06;69.84;100840.78;5132027;27;20050;-65
2022/04/15 05:22:05;;;;;;;21.02;16.83;;;;;;;12.05;70.06;100847.72;5131459;28;20429;-65
2022/04/15 05:24:50;;;;;;;23.00;17.52;;;;;;;12.05;69.70;100847.72;5131991;27;20440;-65
2022/04/15 05:27:34;;;;;;;20.88;15.82;;;;;;;12.05;69.88;100846.81;5131863;28;20096;-65
2022/04/15 05:30:18;;;;;;;20.92;16.17;;;;;;;12.04;69.90;100856.34;5131632;28;20089;-65
2022/04/15 05:33:03;;;;;;;23.27;16.95;;;;;;;12.04;70.12;100853.75;5131597;27;20062;-65
2022/04/15 05:35:47;;;;;;;20.08;16.55;;;;;;;12.02;70.07;100858.91;5131645;28;20054;-65
2022/04/15 05:38:30;;;;;;;21.38;16.48;;;;;;;12.03;69.78;100858.06;5131260;28;20164;-65
2022/04/15 05:41:14;;;;;;;20.80;16.67;;;;;;;12.03;70.26;100862.38;5116029;28;20043;-65
2022/04/15 05:43:58;;;;;;;24.10;17.10;;;;;;;12.02;69.99;100863.22;5115882;28;20051;-64
2022/04/15 05:46:42;;;;;;;23.83;17.75;;;;;;;12.01;69.96;100862.34;5116037;28;20062;-65
2022/04/15 05:49:26;;;;;;;23.63;17.05;;;;;;;12.01;69.93;100877.91;5131498;28;20119;-64
2022/04/15 05:52:11;;;;;;;21.38;17.15;;;;;;;12.00;70.22;100878.75;5130930;28;20088;-65
2022/04/15 05:54:54;;;;;;;21.70;17.95;;;;;;;11.99;70.22;100876.13;5131101;28;20043;-65
2022/04/15 05:57:38;;;;;;;19.27;15.75;;;;;;;11.99;69.84;100878.75;5130882;28;20433;-65
2022/04/15 06:00:22;;;;;;;21.25;17.42;;;;;;;11.98;69.82;100877.88;5131335;27;20050;-65
2022/04/15 06:03:09;;;;;;;21.85;16.67;;;;;;;11.98;69.96;100880.47;5131174;28;20096;-64
2022/04/15 06:05:53;;;;;;;20.08;16.70;;;;;;;11.98;69.93;100884.75;5130928;28;20046;-64
2022/04/15 06:08:37;;;;;;;25.20;16.50;;;;;;;11.98;69.82;100884.75;5130880;28;20037;-65
2022/04/15 06:11:21;;;;;;;24.30;16.67;;;;;;;11.98;69.89;100890.88;5130600;28;20115;-64
2022/04/15 06:14:06;;;;;;;20.98;17.08;;;;;;;11.97;69.99;100889.06;5131011;28;20085;-64
2022/04/15 06:16:51;;;;;;;20.65;17.35;;;;;;;11.98;70.02;100887.34;5115115;28;20109;-66
2022/04/15 06:19:34;;;;;;;20.63;16.83;;;;;;;11.99;69.94;100899.53;5130810;27;20501;-65
2022/04/15 06:22:18;;;;;;;23.23;17.92;;;;;;;11.98;69.82;100902.94;5115599;28;20551;-64
2022/04/15 06:25:03;;;;;;;22.77;17.30;;;;;;;12.00;70.30;100911.69;5117798;28;20050;-65
2022/04/15 06:27:47;;;;;;;;;;;;;;;11.95;69.95;100914.13;5117046;28;20046;-65
2022/04/15 06:30:31;;;;;;;25.40;17.00;;;;;;;11.96;70.26;100917.59;5101158;28;19936;-64
2022/04/15 06:33:16;;;;;;;24.85;17.58;;;;;;;11.95;70.12;100923.63;5101396;28;20093;-65
2022/04/15 06:36:00;;;;;;;22.50;17.42;;;;;;;11.93;70.32;100923.59;5101832;28;20038;-65
2022/04/15 06:38:45;;;;;;;21.92;17.02;;;;;;;11.94;70.24;100921.88;5101150;28;20069;-65
2022/04/15 06:41:29;;;;;;;;;;;;;;;11.91;70.06;100925.28;5101799;28;20053;-64
2022/04/15 06:44:13;;;;;;;23.48;17.95;;;;;;;11.92;70.10;100929.63;5101384;28;20000;-64
2022/04/15 06:46:57;;;;;;;21.60;17.08;;;;;;;11.92;70.53;100928.75;5116526;28;20100;-64
2022/04/15 06:49:45;;;;;;;22.27;17.48;;;;;;;11.91;70.18;100930.47;5101128;28;20096;-64
2022/04/15 06:52:29;;;;;;;22.52;17.50;;;;;;;11.93;70.27;100935.69;5100563;28;20563;-65
2022/04/15 06:55:13;;;;;;;25.55;18.02;;;;;;;11.94;70.67;100932.25;5116306;28;20074;-64
2022/04/15 06:57:57;;;;;;;23.40;19.05;;;;;;;11.93;70.34;100935.69;5101287;28;20050;-65
2022/04/15 07:00:41;;;;;;;23.77;17.73;;;;;;;11.93;70.72;100938.28;5101175;28;20045;-64
2022/04/15 07:03:26;;;;;;;22.77;17.67;;;;;;;11.94;70.44;100935.75;5100999;28;20117;-64
2022/04/15 07:06:09;;;;;;;24.58;19.17;;;;;;;11.93;70.70;100939.19;5100722;28;20403;-64
2022/04/15 07:08:54;;;;;;;22.83;18.23;;;;;;;11.91;70.43;100938.28;5115914;28;20103;-65
2022/04/15 07:11:37;;;;;;;22.83;18.85;;;;;;;11.91;70.50;100940.88;5100200;28;20046;-65
2022/04/15 07:14:22;;;;;;;26.05;18.85;;;;;;;11.90;70.36;100951.22;5115890;28;20462;-66
2022/04/15 07:17:06;;;;;;;24.63;18.08;;;;;;;11.92;70.38;100952.13;5100878;28;20120;-64
2022/04/15 07:19:51;;;;;;;27.83;18.25;;;;;;;11.92;70.48;100949.53;5115380;28;20061;-64
2022/04/15 07:22:35;;;;;;;24.20;18.00;;;;;;;11.91;70.28;100951.25;5116113;28;20051;-65
2022/04/15 07:25:18;;;;;;;25.15;18.52;;;;;;;11.91;70.43;100953.00;5116003;28;20537;-64
2022/04/15 07:28:03;;;;;;;23.73;18.38;;;;;;;11.91;70.70;100942.59;5115684;28;20511;-65
2022/04/15 07:30:47;;;;;;;24.27;18.05;;;;;;;11.92;70.49;100949.53;5115581;28;20108;-64
2022/04/15 07:33:31;;;;;;;24.23;19.13;;;;;;;11.92;70.93;100954.72;5115842;28;20084;-65
2022/04/15 07:39:18;;;;;;;24.00;19.45;;;;;;;11.92;70.41;100960.81;5115429;28;20066;-65
2022/04/15 07:42:02;;;;;;;23.90;18.55;;;;;;;11.94;70.88;100958.25;5115058;28;20045;-64
2022/04/15 07:44:45;;;;;;;25.00;19.00;;;;;;;11.93;71.00;100953.88;5115088;28;20051;-65
2022/04/15 07:47:29;;;;;;;27.23;18.15;;;;;;;11.93;70.64;100949.59;5100133;28;20168;-64
2022/04/15 07:50:13;;;;;;;24.10;19.35;;;;;;;11.92;70.79;100954.72;5099987;28;20045;-64
2022/04/15 07:52:59;;;;;;;23.95;18.15;;;;;;;11.93;70.99;100959.06;5114712;28;20517;-65
2022/04/15 07:55:43;;;;;;;23.77;17.98;;;;;;;11.94;70.78;100963.44;5100125;28;20419;-64
2022/04/15 07:58:27;;;;;;;26.38;18.67;;;;;;;11.94;70.77;100966.94;5115379;28;20564;-64
2022/04/15 08:01:12;;;;;;;22.98;18.60;;;;;;;11.96;71.04;100961.75;5099952;28;20100;-64
2022/04/15 08:03:56;;;;;;;;;;;;;;;11.94;71.03;100963.44;5115634;28;20572;-64
2022/04/15 08:06:41;;;;;;;23.27;19.40;;;;;;;11.95;71.25;100971.28;5099608;28;19965;-64
2022/04/15 08:09:25;;;;;;;22.13;18.13;;;;;;;11.98;70.70;100962.69;5114584;28;20126;-65
2022/04/15 08:12:09;;;;;;;23.17;18.80;;;;;;;11.97;70.89;100958.31;5114519;28;20058;-65
2022/04/15 08:14:53;;;;;;;26.27;20.20;;;;;;;11.98;71.32;100961.00;5114470;28;20185;-64
2022/04/15 08:17:37;;;;;;;23.92;18.30;;;;;;;12.00;70.69;100966.22;5114721;28;20051;-65
2022/04/15 08:20:21;;;;;;;25.27;18.65;;;;;;;11.99;71.26;100961.88;5114510;28;20039;-64
2022/04/15 08:23:09;;;;;;;23.25;17.52;;;;;;;12.01;71.08;100965.38;5114837;28;20047;-65
2022/04/15 08:25:53;;;;;;;25.98;19.30;;;;;;;12.01;71.05;100963.66;5114570;28;20089;-64
2022/04/15 08:28:37;;;;;;;26.02;19.63;;;;;;;12.02;70.99;100965.41;5114014;28;20081;-64
2022/04/15 08:31:21;;;;;;;24.38;18.15;;;;;;;12.05;71.27;100963.75;5099430;28;20509;-64
2022/04/15 08:34:05;;;;;;;24.50;20.33;;;;;;;12.06;71.38;100974.19;5114834;28;20050;-65
2022/04/15 08:36:48;;;;;;;21.67;18.38;;;;;;;12.07;70.95;100970.72;5114684;28;20050;-64
2022/04/15 08:39:33;;;;;;;29.17;20.35;;;;;;;12.08;71.35;100980.28;5114142;28;20092;-65
2022/04/15 08:42:20;;;;;;;23.70;19.60;;;;;;;12.09;71.17;100982.03;5113853;28;20116;-64
2022/04/15 08:45:05;;;;;;;26.40;19.42;;;;;;;12.11;70.98;100985.56;5099271;28;20082;-65
2022/04/15 08:47:49;;;;;;;23.08;18.98;;;;;;;12.12;71.09;100986.44;5098883;28;20081;-64
2022/04/15 08:50:33;;;;;;;29.95;19.67;;;;;;;12.12;71.29;100987.31;5098891;28;20101;-64
2022/04/15 08:53:20;;;;;;;25.67;18.63;;;;;;;12.12;71.37;100997.72;5113781;28;20043;-64
2022/04/15 08:56:05;;;;;;;29.35;20.42;;;;;;;12.13;71.58;101001.19;5098991;28;20130;-65
2022/04/15 08:58:49;;;;;;;24.88;19.95;;;;;;;12.12;70.95;101002.91;5114179;28;20151;-64
2022/04/15 09:01:33;;;;;;;24.63;20.02;;;;;;;12.12;71.08;101005.50;5114093;28;20075;-64
2022/04/15 09:04:20;;;;;;;26.63;20.15;;;;;;;12.12;71.33;101000.31;5114038;28;20105;-65
2022/04/15 09:07:05;;;;;;;25.38;18.67;;;;;;;12.13;71.38;101006.41;5098947;28;20081;-65
2022/04/15 09:09:55;;;;;;;28.65;19.05;;;;;;;12.13;70.95;101012.47;5113805;28;20042;-64
2022/04/15 09:12:40;;;;;;;29.15;20.30;;;;;;;12.15;71.11;101015.09;5082181;28;20094;-65
2022/04/15 09:15:25;;;;;;;25.83;17.40;;;;;;;12.17;71.19;101010.81;5072331;28;20047;-64
2022/04/15 09:18:09;;;;;;;28.92;20.85;;;;;;;12.20;71.39;101021.28;5073656;28;20051;-64
2022/04/15 09:20:52;;;;;;;24.10;18.40;;;;;;;12.20;71.35;101018.69;5072316;28;20404;-64
2022/04/15 09:23:36;;;;;;;26.40;20.15;;;;;;;12.24;71.22;101022.22;5072810;28;20052;-65
2022/04/15 09:26:22;;;;;;;26.63;19.42;;;;;;;12.26;71.44;101029.25;5073032;28;20067;-64
2022/04/15 09:29:06;;;;;;;29.52;22.08;;;;;;;12.28;71.73;101024.06;5072617;28;20083;-64
2022/04/15 09:31:55;;;;;;;27.55;21.67;;;;;;;12.29;71.43;101024.13;5073243;28;20056;-65
2022/04/15 09:34:57;;;;;;;29.52;21.77;;;;;;;12.30;71.61;101032.78;5072927;28;20047;-64
2022/04/15 09:37:43;;;;;;;31.20;22.40;;;;;;;12.30;71.38;101027.59;5071911;28;20063;-64
2022/04/15 09:40:27;;;;;;;28.05;23.25;;;;;;;12.31;71.39;101040.63;5073349;28;20055;-64
2022/04/15 09:43:12;;;;;;;33.47;23.38;;;;;;;12.33;71.55;101032.88;5072486;28;20051;-64
2022/04/15 09:45:56;;;;;;;32.38;23.63;;;;;;;12.35;71.71;101039.00;5072416;28;20051;-65
2022/04/15 09:48:39;;;;;;;31.88;23.92;;;;;;;12.35;71.38;101033.78;5072363;28;20090;-64
2022/04/15 09:51:24;;;;;;;32.88;25.42;;;;;;;12.38;71.44;101043.38;5073079;28;20094;-64
2022/04/15 09:54:11;;;;;;;35.45;24.80;;;;;;;12.39;71.72;101045.13;5072522;28;20115;-64
2022/04/15 09:56:57;;;;;;;39.38;28.27;;;;;;;12.38;71.91;101038.19;5072531;28;20106;-64
2022/04/15 09:59:46;;;;;;;35.63;25.83;;;;;;;12.39;71.77;101039.94;5074081;28;20230;-64
2022/04/15 10:02:37;;;;;;;31.83;24.83;;;;;;;12.41;71.75;101043.47;5076083;28;20047;-64
2022/04/15 10:05:22;;;;;;;33.22;24.63;;;;;;;12.42;71.54;101040.03;5076680;28;20070;-65
2022/04/15 10:08:08;;;;;;;36.35;25.67;;;;;;;12.42;71.71;101040.88;5076085;28;20572;-64
2022/04/15 10:10:54;;;;;;;38.08;27.30;;;;;;;12.40;71.40;101042.56;5075850;28;20052;-65
2022/04/15 10:13:39;;;;;;;35.40;26.35;;;;;;;12.39;71.64;101035.59;5099488;28;20054;-64
2022/04/15 10:16:24;;;;;;;33.25;25.83;;;;;;;12.41;71.54;101040.88;5102185;28;20054;-64
2022/04/15 10:19:10;;;;;;;34.53;26.98;;;;;;;12.39;71.80;101040.81;5116705;28;20121;-64
2022/04/15 10:21:55;;;;;;;39.65;26.35;;;;;;;12.41;71.48;101051.25;5102130;28;20113;-64
2022/04/15 10:24:40;;;;;;;36.08;27.83;;;;;;;12.39;71.49;101042.53;5101735;28;20173;-65
2022/04/15 10:27:26;;;;;;;34.72;25.60;;;;;;;12.40;71.60;101045.16;5101858;28;20603;-65
2022/04/15 10:30:21;;;;;;;36.80;25.90;;;;;;;12.42;71.79;101050.41;5101249;28;20555;-64
2022/04/15 10:33:05;;;;;;;37.13;27.95;;;;;;;12.41;71.80;101059.91;5101050;28;20056;-64
2022/04/15 10:35:53;;;;;;;33.63;25.05;;;;;;;12.40;71.71;101054.69;5116849;28;20046;-64
2022/04/15 10:38:37;;;;;;;35.00;26.05;;;;;;;12.39;71.67;101048.59;5101821;28;20046;-64
2022/04/15 10:41:21;;;;;;;;;;;;;;;12.40;71.73;101052.97;5116993;28;20434;-64
2022/04/15 10:44:05;;;;;;;31.38;25.27;;;;;;;12.37;71.64;101045.13;5116547;28;19937;-64
2022/04/15 10:46:49;;;;;;;36.83;27.45;;;;;;;12.38;72.16;101043.38;5116245;28;20042;-65
2022/04/15 10:49:34;;;;;;;34.60;24.75;;;;;;;12.38;71.51;101043.38;5116213;28;20046;-65
2022/04/15 10:52:21;;;;;;;35.17;25.45;;;;;;;12.35;71.66;101041.59;5116157;28;20043;-64
2022/04/15 10:55:07;;;;;;;40.88;27.48;;;;;;;12.34;71.64;101045.91;5100641;28;20088;-65
2022/04/15 10:58:15;;;;;;;36.58;25.63;;;;;;;12.36;71.83;101032.06;5100960;28;20042;-64
2022/04/15 11:01:19;;;;;;;34.33;25.90;;;;;;;12.34;71.63;101032.91;5100489;28;20406;-64
2022/04/15 11:04:05;;;;;;;36.63;28.08;;;;;;;12.35;71.75;101041.59;5100920;28;20082;-64
2022/04/15 11:06:51;;;;;;;37.15;26.77;;;;;;;12.33;71.71;101036.34;5101013;28;20469;-64
2022/04/15 11:09:34;;;;;;;34.85;25.02;;;;;;;12.32;71.65;101037.19;5100429;28;20070;-65
2022/04/15 11:12:35;;;;;;;37.03;26.08;;;;;;;12.31;71.99;101037.16;5115882;28;20086;-64
2022/04/15 11:15:57;;;;;;;32.20;25.52;;;;;;;12.32;72.14;101036.31;5100550;28;20043;-65
2022/04/15 11:18:55;;;;;;;35.75;26.42;;;;;;;12.33;71.86;101028.53;5100547;28;20600;-65
2022/04/15 11:21:40;;;;;;;33.20;24.40;;;;;;;12.34;72.01;101039.84;5100719;28;20151;-65
2022/04/15 11:24:30;;;;;;;36.75;27.67;;;;;;;12.35;71.84;101041.59;5100173;28;20082;-64
2022/04/15 11:27:14;;;;;;;37.22;27.88;;;;;;;12.35;71.87;101039.00;5100308;28;20046;-65
2022/04/15 11:29:58;;;;;;;33.17;25.50;;;;;;;12.33;71.86;101044.13;5115955;28;20140;-65
2022/04/15 11:32:54;;;;;;;34.45;27.60;;;;;;;12.33;72.04;101035.47;5115252;28;20042;-65
2022/04/15 11:35:39;;;;;;;33.63;25.40;;;;;;;12.34;71.59;101032.91;5115493;28;20422;-65
2022/04/15 11:38:22;;;;;;;31.55;24.63;;;;;;;12.35;72.15;101044.19;5100504;28;20046;-64
2022/04/15 11:41:06;;;;;;;33.33;24.48;;;;;;;12.36;71.68;101038.16;5099594;28;20055;-65
2022/04/15 11:44:04;;;;;;;33.00;26.00;;;;;;;12.38;72.08;101028.66;5115173;28;20441;-65
2022/04/15 11:46:53;;;;;;;33.72;26.55;;;;;;;12.39;71.78;101033.00;5099771;28;20047;-64
2022/04/15 11:49:41;;;;;;;33.97;25.35;;;;;;;12.41;71.78;101025.25;5115898;28;20096;-65
2022/04/15 11:52:27;;;;;;;31.48;23.73;;;;;;;12.40;71.82;101028.69;5099874;28;20092;-65
2022/04/15 11:55:15;;;;;;;33.60;25.25;;;;;;;12.41;71.77;101031.31;5100191;28;20131;-65
2022/04/15 11:58:00;;;;;;;31.85;24.92;;;;;;;12.42;72.14;101030.50;5099752;28;20563;-65
2022/04/15 12:00:56;;;;;;;31.20;25.58;;;;;;;12.43;71.83;101024.44;5099966;28;20046;-65
2022/04/15 12:03:43;;;;;;;33.60;24.38;;;;;;;12.42;72.07;101020.09;5099201;28;20051;-65
2022/04/15 12:06:29;;;;;;;33.50;23.75;;;;;;;12.42;71.80;101025.28;5099554;28;20051;-65
2022/04/15 12:09:15;;;;;;;29.30;23.63;;;;;;;12.42;71.83;101021.81;5099427;28;20050;-65
2022/04/15 12:11:59;;;;;;;29.92;23.38;;;;;;;12.42;71.78;101032.22;5099322;28;20105;-66
2022/04/15 12:14:43;;;;;;;;;;;;;;;12.40;71.74;101032.16;5100430;28;20498;-65
2022/04/15 12:17:28;;;;;;;27.83;22.38;;;;;;;12.39;72.04;101035.59;5099906;28;20381;-65
2022/04/15 12:20:14;;;;;;;29.80;22.77;;;;;;;12.39;72.02;101035.59;5114318;28;20529;-65
2022/04/15 12:23:02;;;;;;;28.23;22.70;;;;;;;12.41;71.87;101041.72;5114387;28;20134;-65
2022/04/15 12:26:08;;;;;;;32.92;23.20;;;;;;;12.42;71.96;101034.81;5099140;28;20047;-66
2022/04/15 12:32:17;;;;;;;31.55;22.05;;;;;;;12.42;71.94;101035.69;5114279;28;20127;-64
2022/04/15 12:35:01;;;;;;;31.15;22.48;;;;;;;12.42;71.87;101033.09;5114211;28;20066;-65
2022/04/15 12:37:50;;;;;;;27.48;22.15;;;;;;;12.44;71.84;101034.00;5114439;28;20042;-65
2022/04/15 12:40:34;;;;;;;28.00;21.40;;;;;;;12.42;71.93;101040.88;5114043;28;20046;-65
2022/04/15 12:43:18;;;;;;;25.95;21.17;;;;;;;12.42;71.65;101038.28;5114601;28;20039;-64